| time (UTC) | temp F | wind direction | speed MPH | gust MPH | rain 1hr in | rain 24hr in | rain mn in | humidity % | barometer mb |
| 20260508072725 | 40 | 164 | 7.0 | 11.0 | 0.00 | 0.01 | 0.01 | 76 | 1023.9 |
| 20260508072222 | 41 | 148 | 4.0 | 11.0 | 0.00 | 0.01 | 0.01 | 74 | 1024.0 |
| 20260508071719 | 42 | 164 | 11.0 | 13.0 | 0.00 | 0.01 | 0.01 | 71 | 1023.8 |
| 20260508071217 | 42 | 136 | 5.0 | 9.0 | 0.00 | 0.01 | 0.01 | 66 | 1023.5 |
| 20260508070714 | 43 | 155 | 8.0 | 10.0 | 0.00 | 0.01 | 0.01 | 67 | 1023.2 |
| 20260508070213 | 44 | 136 | 6.0 | 11.0 | 0.00 | 0.01 | 0.01 | 62 | 1023.2 |
| 20260508065710 | 44 | 138 | 2.0 | 8.0 | 0.00 | 0.01 | 0.01 | 62 | 1023.2 |
| 20260508065208 | 43 | 222 | 0.0 | 4.0 | 0.00 | 0.01 | 0.01 | 66 | 1023.1 |
| 20260508064705 | 43 | 265 | 2.0 | 3.0 | 0.00 | 0.01 | 0.01 | 69 | 1023.1 |
| 20260508064203 | 44 | 155 | 2.0 | 3.0 | 0.00 | 0.01 | 0.01 | 64 | 1023.1 |
| 20260508063700 | 43 | 33 | 2.0 | 3.0 | 0.00 | 0.01 | 0.01 | 65 | 1023.1 |
| 20260508063158 | 42 | 103 | 2.0 | 3.0 | 0.00 | 0.01 | 0.01 | 67 | 1023.1 |
| 20260508062655 | 42 | 91 | 2.0 | 5.0 | 0.00 | 0.01 | 0.01 | 68 | 1023.0 |
| 20260508062152 | 41 | 105 | 2.0 | 6.0 | 0.00 | 0.01 | 0.01 | 68 | 1023.1 |
| 20260508061649 | 41 | 159 | 4.0 | 6.0 | 0.00 | 0.01 | 0.01 | 69 | 1022.8 |
| 20260508061147 | 41 | 131 | 4.0 | 5.0 | 0.00 | 0.01 | 0.01 | 71 | 1023.0 |
| 20260508060643 | 41 | 147 | 4.0 | 7.0 | 0.00 | 0.01 | 0.01 | 71 | 1022.8 |
| 20260508060141 | 40 | 149 | 8.0 | 9.0 | 0.00 | 0.01 | 0.01 | 73 | 1022.8 |
| 20260508055636 | 40 | 71 | 2.0 | 4.0 | 0.00 | 0.01 | 0.01 | 77 | 1023.0 |
| 20260508055133 | 40 | 75 | 4.0 | 4.0 | 0.00 | 0.01 | 0.01 | 77 | 1022.7 |
| 20260508054629 | 40 | 143 | 4.0 | 5.0 | 0.00 | 0.01 | 0.01 | 77 | 1022.8 |
| 20260508054127 | 40 | 56 | 2.0 | 5.0 | 0.00 | 0.01 | 0.01 | 78 | 1022.7 |
| 20260508053624 | 39 | 107 | 6.0 | 7.0 | 0.00 | 0.01 | 0.01 | 77 | 1022.7 |
| 20260508053122 | 39 | 104 | 4.0 | 8.0 | 0.00 | 0.01 | 0.01 | 80 | 1022.6 |
| 20260508052619 | 39 | 125 | 3.0 | 4.0 | 0.00 | 0.01 | 0.01 | 83 | 1022.7 |
| 20260508052116 | 39 | 94 | 3.0 | 6.0 | 0.00 | 0.01 | 0.01 | 84 | 1022.6 |
| 20260508051612 | 38 | 70 | 6.0 | 8.0 | 0.00 | 0.01 | 0.01 | 86 | 1022.6 |
| 20260508051107 | 38 | 66 | 5.0 | 7.0 | 0.00 | 0.01 | 0.01 | 88 | 1022.6 |
| 20260508050604 | 37 | 122 | 4.0 | 6.0 | 0.00 | 0.01 | 0.01 | 88 | 1022.6 |
| 20260508045557 | 38 | 78 | 4.0 | 4.0 | 0.00 | 0.01 | 0.01 | 87 | 1022.5 |
| 20260508045055 | 38 | 73 | 3.0 | 5.0 | 0.00 | 0.01 | 0.01 | 86 | 1022.4 |
| 20260508044552 | 38 | 71 | 5.0 | 5.0 | 0.00 | 0.01 | 0.01 | 88 | 1022.2 |
| 20260508044048 | 37 | 84 | 4.0 | 4.0 | 0.00 | 0.01 | 0.01 | 92 | 1022.4 |
| 20260508043545 | 36 | 83 | 3.0 | 5.0 | 0.00 | 0.01 | 0.01 | 91 | 1022.2 |
| 20260508043043 | 36 | 73 | 6.0 | 6.0 | 0.00 | 0.01 | 0.01 | 92 | 1022.2 |
| 20260508042539 | 36 | 57 | 3.0 | 4.0 | 0.00 | 0.01 | 0.01 | 93 | 1022.3 |
| 20260508042037 | 36 | 84 | 2.0 | 3.0 | 0.00 | 0.01 | 0.01 | 93 | 1022.3 |
| 20260508041533 | 35 | 72 | 3.0 | 4.0 | 0.00 | 0.01 | 0.01 | 93 | 1022.2 |
| 20260508041029 | 35 | 77 | 4.0 | 4.0 | 0.00 | 0.01 | 0.01 | 93 | 1022.3 |
| 20260508040526 | 35 | 72 | 4.0 | 4.0 | 0.00 | 0.01 | 0.01 | 93 | 1022.3 |
| 20260508040024 | 35 | 60 | 4.0 | 4.0 | 0.00 | 0.01 | 0.01 | 93 | 1022.2 |
| 20260508035521 | 35 | 71 | 3.0 | 4.0 | 0.00 | 0.01 | 0.01 | 93 | 1022.3 |
| 20260508035018 | 35 | 40 | 4.0 | 4.0 | 0.00 | 0.01 | 0.01 | 93 | 1022.1 |
| 20260508034515 | 35 | 71 | 4.0 | 4.0 | 0.00 | 0.01 | 0.01 | 93 | 1022.2 |
| 20260508034012 | 35 | 70 | 4.0 | 5.0 | 0.00 | 0.01 | 0.01 | 93 | 1022.0 |
| 20260508033510 | 34 | 78 | 4.0 | 5.0 | 0.00 | 0.01 | 0.01 | 93 | 1021.8 |
| 20260508033007 | 34 | 63 | 5.0 | 6.0 | 0.02 | 0.01 | 0.01 | 92 | 1022.0 |
| 20260508032504 | 34 | 54 | 5.0 | 6.0 | 0.02 | 0.01 | 0.01 | 92 | 1022.0 |
| 20260508032001 | 34 | 70 | 4.0 | 5.0 | 0.00 | 0.00 | 0.00 | 93 | 1022.0 |
| 20260508031459 | 34 | 98 | 3.0 | 4.0 | 0.00 | 0.00 | 0.00 | 93 | 1021.9 |
| 20260508030953 | 34 | 119 | 4.0 | 7.0 | 0.00 | 0.00 | 0.00 | 93 | 1021.9 |
| 20260508030451 | 34 | 77 | 6.0 | 6.0 | 0.00 | 0.00 | 0.00 | 93 | 1022.0 |
| 20260508025948 | 34 | 48 | 4.0 | 5.0 | 0.02 | 0.00 | 0.00 | 93 | 1022.0 |
| 20260508025444 | 33 | 41 | 4.0 | 7.0 | 0.00 | 0.00 | 0.00 | 92 | 1021.8 |
| 20260508024942 | 34 | 69 | 5.0 | 6.0 | 0.00 | 0.00 | 0.00 | 92 | 1021.9 |
| 20260508024438 | 34 | 70 | 6.0 | 6.0 | 0.00 | 0.00 | 0.00 | 92 | 1021.9 |
| 20260508023935 | 34 | 46 | 4.0 | 5.0 | 0.00 | 0.00 | 0.00 | 91 | 1021.8 |
| 20260508023432 | 33 | 50 | 5.0 | 6.0 | 0.00 | 0.00 | 0.00 | 91 | 1021.8 |
| 20260508022929 | 33 | 47 | 6.0 | 6.0 | 0.00 | 0.00 | 0.00 | 90 | 1021.8 |
| 20260508022424 | 33 | 52 | 6.0 | 6.0 | 0.00 | 0.00 | 0.00 | 88 | 1022.0 |
| 20260508021921 | 33 | 64 | 5.0 | 6.0 | 0.00 | 0.00 | 0.00 | 87 | 1021.8 |
| 20260508021418 | 33 | 56 | 3.0 | 4.0 | 0.00 | 0.00 | 0.00 | 87 | 1021.9 |
| 20260508020913 | 33 | 55 | 4.0 | 4.0 | 0.00 | 0.00 | 0.00 | 86 | 1021.4 |
| 20260508020412 | 33 | 66 | 6.0 | 7.0 | 0.00 | 0.00 | 0.00 | 85 | 1021.4 |
| 20260508015908 | 33 | 77 | 6.0 | 6.0 | 0.00 | 0.00 | 0.00 | 83 | 1021.3 |
| 20260508015406 | 33 | 75 | 7.0 | 8.0 | 0.00 | 0.00 | 0.00 | 84 | 1021.3 |
| 20260508014902 | 33 | 80 | 6.0 | 8.0 | 0.00 | 0.00 | 0.00 | 86 | 1021.2 |
| 20260508014400 | 32 | 61 | 7.0 | 8.0 | 0.00 | 0.00 | 0.00 | 86 | 1021.5 |
| 20260508013855 | 32 | 65 | 8.0 | 9.0 | 0.00 | 0.00 | 0.00 | 85 | 1021.3 |
| 20260508013351 | 32 | 69 | 5.0 | 6.0 | 0.00 | 0.00 | 0.00 | 85 | 1021.3 |
| 20260508012849 | 31 | 78 | 5.0 | 6.0 | 0.00 | 0.00 | 0.00 | 88 | 1021.1 |
| 20260508012346 | 31 | 88 | 3.0 | 5.0 | 0.00 | 0.00 | 0.00 | 88 | 1021.1 |
| 20260508011844 | 31 | 64 | 4.0 | 4.0 | 0.00 | 0.00 | 0.00 | 87 | 1021.1 |
| 20260508011342 | 31 | 79 | 5.0 | 7.0 | 0.00 | 0.00 | 0.00 | 88 | 1021.1 |
| 20260508010838 | 31 | 79 | 4.0 | 5.0 | 0.00 | 0.00 | 0.00 | 87 | 1021.0 |
| 20260508010336 | 31 | 74 | 4.0 | 9.0 | 0.00 | 0.00 | 0.00 | 84 | 1021.0 |
| 20260508005833 | 32 | 76 | 6.0 | 7.0 | 0.00 | 0.00 | 0.00 | 85 | 1020.9 |
| 20260508005329 | 32 | 83 | 6.0 | 6.0 | 0.00 | 0.00 | 0.00 | 84 | 1020.9 |
| 20260508004825 | 33 | 72 | 7.0 | 9.0 | 0.00 | 0.00 | 0.00 | 81 | 1020.9 |
| 20260508004322 | 33 | 77 | 7.0 | 8.0 | 0.00 | 0.00 | 0.00 | 82 | 1021.0 |
| 20260508003818 | 33 | 72 | 8.0 | 10.0 | 0.00 | 0.00 | 0.00 | 83 | 1020.9 |
| 20260508003316 | 33 | 73 | 6.0 | 6.0 | 0.00 | 0.00 | 0.00 | 83 | 1020.9 |
| 20260508002812 | 33 | 73 | 6.0 | 8.0 | 0.00 | 0.00 | 0.00 | 83 | 1020.8 |
| 20260508002309 | 33 | 57 | 6.0 | 6.0 | 0.00 | 0.00 | 0.00 | 85 | 1020.7 |
| 20260508001805 | 33 | 79 | 4.0 | 6.0 | 0.00 | 0.00 | 0.00 | 85 | 1020.7 |
| 20260508001301 | 33 | 43 | 5.0 | 5.0 | 0.00 | 0.00 | 0.00 | 84 | 1020.7 |
| 20260508000758 | 33 | 39 | 6.0 | 6.0 | 0.00 | 0.00 | 0.00 | 83 | 1020.4 |
| 20260508000257 | 33 | 76 | 6.0 | 6.0 | 0.00 | 0.00 | 0.00 | 82 | 1020.5 |
| 20260507235751 | 33 | 82 | 5.0 | 6.0 | 0.00 | 0.00 | 0.00 | 82 | 1020.6 |
| 20260507235249 | 33 | 43 | 5.0 | 6.0 | 0.00 | 0.00 | 0.00 | 83 | 1020.4 |
| 20260507234745 | 33 | 52 | 5.0 | 6.0 | 0.00 | 0.00 | 0.00 | 82 | 1020.4 |
| 20260507234242 | 33 | 95 | 6.0 | 6.0 | 0.00 | 0.00 | 0.00 | 82 | 1020.3 |
| 20260507233738 | 33 | 91 | 6.0 | 6.0 | 0.00 | 0.00 | 0.00 | 83 | 1020.3 |
| 20260507233237 | 32 | 76 | 6.0 | 9.0 | 0.00 | 0.00 | 0.00 | 84 | 1020.4 |
| 20260507232734 | 33 | 60 | 9.0 | 9.0 | 0.00 | 0.00 | 0.00 | 80 | 1020.2 |
| 20260507232230 | 32 | 44 | 6.0 | 6.0 | 0.00 | 0.00 | 0.00 | 79 | 1020.3 |
| 20260507231727 | 33 | 61 | 5.0 | 6.0 | 0.00 | 0.00 | 0.00 | 79 | 1020.2 |
| 20260507231224 | 33 | 84 | 2.0 | 6.0 | 0.00 | 0.00 | 0.00 | 78 | 1020.4 |
| 20260507230720 | 32 | 82 | 5.0 | 5.0 | 0.00 | 0.00 | 0.00 | 79 | 1020.1 |
| 20260507230218 | 33 | 69 | 6.0 | 7.0 | 0.00 | 0.00 | 0.00 | 77 | 1020.2 |
| 20260507225717 | 33 | 75 | 6.0 | 8.0 | 0.00 | 0.00 | 0.00 | 77 | 1020.2 |
| 20260507225214 | 33 | 80 | 6.0 | 8.0 | 0.00 | 0.00 | 0.00 | 78 | 1019.9 |
| 20260507224710 | 32 | 76 | 7.0 | 11.0 | 0.00 | 0.00 | 0.00 | 80 | 1020.0 |
| 20260507224207 | 32 | 62 | 9.0 | 10.0 | 0.00 | 0.00 | 0.00 | 80 | 1020.0 |
| 20260507223703 | 33 | 75 | 5.0 | 5.0 | 0.00 | 0.00 | 0.00 | 76 | 1019.9 |
| 20260507223200 | 34 | 59 | 8.0 | 8.0 | 0.00 | 0.00 | 0.00 | 74 | 1020.0 |
| 20260507222657 | 33 | 81 | 6.0 | 7.0 | 0.00 | 0.00 | 0.00 | 78 | 1020.0 |
| 20260507222153 | 33 | 78 | 5.0 | 7.0 | 0.00 | 0.00 | 0.00 | 76 | 1019.9 |
| 20260507221649 | 34 | 64 | 9.0 | 10.0 | 0.00 | 0.00 | 0.00 | 76 | 1019.8 |
| 20260507221146 | 35 | 71 | 9.0 | 9.0 | 0.00 | 0.00 | 0.00 | 74 | 1019.9 |
| 20260507220643 | 34 | 89 | 6.0 | 8.0 | 0.00 | 0.00 | 0.00 | 75 | 1019.7 |
| 20260507220141 | 33 | 85 | 6.0 | 6.0 | 0.00 | 0.00 | 0.00 | 79 | 1019.6 |
| 20260507215637 | 35 | 70 | 8.0 | 9.0 | 0.00 | 0.00 | 0.00 | 74 | 1019.5 |
| 20260507215135 | 34 | 74 | 7.0 | 9.0 | 0.00 | 0.00 | 0.00 | 77 | 1019.4 |
| 20260507214631 | 34 | 70 | 7.0 | 8.0 | 0.00 | 0.00 | 0.00 | 77 | 1019.5 |
| 20260507214128 | 33 | 80 | 7.0 | 9.0 | 0.00 | 0.00 | 0.00 | 79 | 1019.5 |
| 20260507213624 | 33 | 87 | 6.0 | 9.0 | 0.00 | 0.00 | 0.00 | 79 | 1019.5 |
| 20260507213122 | 34 | 69 | 8.0 | 9.0 | 0.00 | 0.00 | 0.00 | 76 | 1019.3 |
| 20260507212617 | 34 | 71 | 8.0 | 11.0 | 0.00 | 0.00 | 0.00 | 78 | 1019.4 |
| 20260507212114 | 35 | 66 | 9.0 | 9.0 | 0.00 | 0.00 | 0.00 | 76 | 1019.4 |
| 20260507211611 | 35 | 73 | 6.0 | 7.0 | 0.00 | 0.00 | 0.00 | 78 | 1019.5 |
| 20260507211107 | 35 | 86 | 6.0 | 6.0 | 0.00 | 0.00 | 0.00 | 77 | 1019.3 |
| 20260507210605 | 35 | 86 | 4.0 | 5.0 | 0.00 | 0.00 | 0.00 | 76 | 1019.3 |
| 20260507205558 | 36 | 72 | 6.0 | 7.0 | 0.00 | 0.00 | 0.00 | 74 | 1019.2 |
| 20260507205054 | 35 | 71 | 9.0 | 9.0 | 0.00 | 0.00 | 0.00 | 76 | 1019.1 |
| 20260507204550 | 36 | 66 | 7.0 | 9.0 | 0.00 | 0.00 | 0.00 | 73 | 1019.2 |
| 20260507204048 | 36 | 69 | 8.0 | 8.0 | 0.00 | 0.00 | 0.00 | 72 | 1019.1 |
| 20260507203546 | 36 | 74 | 7.0 | 8.0 | 0.00 | 0.00 | 0.00 | 72 | 1019.1 |
| 20260507203043 | 36 | 76 | 5.0 | 7.0 | 0.00 | 0.00 | 0.00 | 72 | 1018.9 |
| 20260507202538 | 37 | 66 | 6.0 | 7.0 | 0.00 | 0.00 | 0.00 | 71 | 1019.0 |
| 20260507202035 | 37 | 84 | 6.0 | 7.0 | 0.00 | 0.00 | 0.00 | 72 | 1019.0 |
| 20260507201531 | 36 | 99 | 6.0 | 7.0 | 0.00 | 0.00 | 0.00 | 74 | 1018.9 |
| 20260507201027 | 37 | 78 | 6.0 | 9.0 | 0.00 | 0.00 | 0.00 | 73 | 1018.9 |
| 20260507200522 | 37 | 87 | 5.0 | 6.0 | 0.00 | 0.00 | 0.00 | 73 | 1018.8 |
| 20260507200019 | 37 | 75 | 5.0 | 9.0 | 0.00 | 0.00 | 0.00 | 73 | 1018.7 |
| 20260507195516 | 37 | 81 | 7.0 | 8.0 | 0.00 | 0.00 | 0.00 | 74 | 1018.8 |
| 20260507195014 | 38 | 76 | 6.0 | 6.0 | 0.00 | 0.00 | 0.00 | 75 | 1018.4 |
| 20260507194510 | 38 | 73 | 6.0 | 7.0 | 0.00 | 0.00 | 0.00 | 76 | 1018.6 |
| 20260507194006 | 38 | 80 | 5.0 | 5.0 | 0.00 | 0.00 | 0.00 | 77 | 1018.8 |
| 20260507193503 | 39 | 82 | 7.0 | 9.0 | 0.00 | 0.00 | 0.00 | 77 | 1018.5 |
| 20260507193000 | 39 | 87 | 5.0 | 6.0 | 0.00 | 0.00 | 0.00 | 76 | 1018.4 |
| 20260507192455 | 39 | 94 | 6.0 | 9.0 | 0.00 | 0.00 | 0.00 | 74 | 1018.3 |
| 20260507191953 | 40 | 66 | 7.0 | 7.0 | 0.00 | 0.00 | 0.00 | 74 | 1018.4 |
| 20260507191449 | 40 | 71 | 7.0 | 9.0 | 0.00 | 0.00 | 0.00 | 74 | 1018.1 |
| 20260507190946 | 40 | 58 | 5.0 | 6.0 | 0.00 | 0.00 | 0.00 | 73 | 1018.4 |
| 20260507190443 | 41 | 56 | 6.0 | 6.0 | 0.00 | 0.00 | 0.00 | 72 | 1018.4 |
| 20260507185942 | 41 | 65 | 5.0 | 6.0 | 0.00 | 0.00 | 0.00 | 71 | 1018.2 |
| 20260507185439 | 41 | 57 | 5.0 | 6.0 | 0.00 | 0.00 | 0.00 | 71 | 1018.3 |
| 20260507184935 | 42 | 63 | 5.0 | 6.0 | 0.00 | 0.00 | 0.00 | 69 | 1018.3 |
| 20260507184434 | 42 | 33 | 4.0 | 5.0 | 0.00 | 0.00 | 0.00 | 69 | 1018.2 |
| 20260507183931 | 42 | 355 | 2.0 | 6.0 | 0.00 | 0.00 | 0.00 | 69 | 1018.1 |
| 20260507183427 | 42 | 40 | 4.0 | 6.0 | 0.00 | 0.00 | 0.00 | 69 | 1018.0 |
| 20260507182925 | 42 | 36 | 5.0 | 7.0 | 0.00 | 0.00 | 0.00 | 69 | 1018.1 |
| 20260507182421 | 43 | 34 | 5.0 | 8.0 | 0.00 | 0.00 | 0.00 | 70 | 1018.1 |
| 20260507181917 | 43 | 22 | 7.0 | 9.0 | 0.00 | 0.00 | 0.00 | 68 | 1018.0 |
| 20260507181413 | 43 | 38 | 3.0 | 5.0 | 0.00 | 0.00 | 0.00 | 70 | 1018.0 |
| 20260507180910 | 43 | 36 | 6.0 | 6.0 | 0.00 | 0.00 | 0.00 | 69 | 1018.0 |
| 20260507180407 | 44 | 350 | 4.0 | 8.0 | 0.00 | 0.00 | 0.00 | 68 | 1017.9 |
| 20260507175903 | 44 | 315 | 6.0 | 9.0 | 0.00 | 0.00 | 0.00 | 67 | 1017.9 |
| 20260507175400 | 44 | 313 | 6.0 | 11.0 | 0.00 | 0.00 | 0.00 | 68 | 1017.8 |
| 20260507174857 | 44 | 291 | 8.0 | 12.0 | 0.00 | 0.00 | 0.00 | 68 | 1017.6 |
| 20260507174354 | 44 | 279 | 9.0 | 11.0 | 0.00 | 0.00 | 0.00 | 69 | 1017.7 |
| 20260507173852 | 44 | 297 | 9.0 | 12.0 | 0.00 | 0.00 | 0.00 | 70 | 1017.7 |
| 20260507173349 | 45 | 281 | 9.0 | 10.0 | 0.00 | 0.00 | 0.00 | 69 | 1017.7 |
| 20260507172845 | 44 | 278 | 9.0 | 10.0 | 0.00 | 0.00 | 0.00 | 70 | 1017.5 |
| 20260507172342 | 44 | 274 | 10.0 | 11.0 | 0.00 | 0.00 | 0.00 | 69 | 1017.7 |
| 20260507171838 | 44 | 281 | 10.0 | 12.0 | 0.00 | 0.00 | 0.00 | 70 | 1017.6 |
| 20260507171335 | 44 | 297 | 9.0 | 12.0 | 0.00 | 0.00 | 0.00 | 70 | 1017.7 |
| 20260507170832 | 44 | 297 | 6.0 | 11.0 | 0.00 | 0.00 | 0.00 | 66 | 1017.5 |
| 20260507170328 | 44 | 291 | 6.0 | 13.0 | 0.00 | 0.00 | 0.00 | 67 | 1017.3 |
| 20260507165824 | 45 | 314 | 8.0 | 11.0 | 0.00 | 0.00 | 0.00 | 64 | 1017.4 |
| 20260507165320 | 46 | 323 | 4.0 | 4.0 | 0.00 | 0.00 | 0.00 | 59 | 1017.4 |
| 20260507164816 | 46 | 354 | 2.0 | 3.0 | 0.00 | 0.00 | 0.00 | 58 | 1017.4 |
| 20260507164314 | 46 | 322 | 1.0 | 2.0 | 0.00 | 0.00 | 0.00 | 60 | 1017.3 |
| 20260507163811 | 46 | 182 | 1.0 | 1.0 | 0.00 | 0.00 | 0.00 | 59 | 1017.5 |
| 20260507163309 | 46 | 351 | 2.0 | 4.0 | 0.00 | 0.00 | 0.00 | 57 | 1017.4 |
| 20260507162804 | 46 | 296 | 3.0 | 3.0 | 0.00 | 0.00 | 0.00 | 57 | 1017.0 |
| 20260507162300 | 46 | 285 | 4.0 | 4.0 | 0.00 | 0.00 | 0.00 | 56 | 1017.1 |
| 20260507161758 | 46 | 321 | 3.0 | 4.0 | 0.00 | 0.00 | 0.00 | 53 | 1017.2 |
| 20260507161254 | 45 | 325 | 2.0 | 3.0 | 0.00 | 0.00 | 0.00 | 53 | 1017.1 |
| 20260507160750 | 45 | 293 | 2.0 | 4.0 | 0.00 | 0.00 | 0.00 | 60 | 1017.0 |
| 20260507160246 | 44 | 318 | 2.0 | 4.0 | 0.00 | 0.00 | 0.00 | 60 | 1017.2 |
| 20260507155742 | 44 | 332 | 3.0 | 4.0 | 0.00 | 0.00 | 0.00 | 62 | 1017.2 |
| 20260507155238 | 44 | 315 | 4.0 | 5.0 | 0.00 | 0.00 | 0.00 | 61 | 1017.0 |
| 20260507154735 | 44 | 328 | 5.0 | 6.0 | 0.00 | 0.00 | 0.00 | 62 | 1017.0 |
| 20260507154233 | 44 | 311 | 5.0 | 6.0 | 0.00 | 0.00 | 0.00 | 61 | 1017.0 |
| 20260507153729 | 44 | 306 | 4.0 | 5.0 | 0.00 | 0.00 | 0.00 | 63 | 1016.9 |
| 20260507153226 | 44 | 316 | 5.0 | 5.0 | 0.00 | 0.00 | 0.00 | 63 | 1016.9 |
| 20260507152722 | 44 | 303 | 5.0 | 6.0 | 0.00 | 0.00 | 0.00 | 62 | 1017.0 |
| 20260507152219 | 45 | 320 | 5.0 | 6.0 | 0.00 | 0.00 | 0.00 | 60 | 1017.0 |
| 20260507151715 | 46 | 303 | 4.0 | 4.0 | 0.00 | 0.00 | 0.00 | 57 | 1017.1 |
| 20260507151211 | 45 | 92 | 3.0 | 5.0 | 0.00 | 0.00 | 0.00 | 58 | 1017.0 |
| 20260507150708 | 44 | 20 | 2.0 | 5.0 | 0.00 | 0.00 | 0.00 | 60 | 1016.9 |
| 20260507150205 | 43 | 22 | 2.0 | 4.0 | 0.00 | 0.00 | 0.00 | 62 | 1016.9 |
| 20260507145701 | 43 | 8 | 3.0 | 4.0 | 0.00 | 0.00 | 0.00 | 64 | 1017.2 |
| 20260507145158 | 42 | 315 | 4.0 | 6.0 | 0.00 | 0.00 | 0.00 | 66 | 1017.2 |
| 20260507144654 | 42 | 317 | 4.0 | 7.0 | 0.00 | 0.00 | 0.00 | 65 | 1017.1 |
| 20260507144153 | 43 | 292 | 9.0 | 10.0 | 0.00 | 0.00 | 0.00 | 64 | 1016.9 |
| 20260507143649 | 43 | 267 | 9.0 | 13.0 | 0.00 | 0.00 | 0.00 | 64 | 1016.9 |
| 20260507143146 | 43 | 99 | 2.0 | 9.0 | 0.00 | 0.00 | 0.00 | 65 | 1016.8 |
| 20260507142642 | 43 | 60 | 3.0 | 4.0 | 0.00 | 0.00 | 0.00 | 60 | 1016.9 |
| 20260507142139 | 43 | 320 | 3.0 | 5.0 | 0.00 | 0.00 | 0.00 | 59 | 1017.0 |
| 20260507141635 | 43 | 332 | 4.0 | 4.0 | 0.00 | 0.00 | 0.00 | 63 | 1016.8 |
| 20260507141132 | 43 | 335 | 2.0 | 4.0 | 0.00 | 0.00 | 0.00 | 62 | 1017.0 |
| 20260507140628 | 44 | 325 | 3.0 | 5.0 | 0.00 | 0.00 | 0.00 | 61 | 1016.7 |
| 20260507140126 | 44 | 283 | 4.0 | 4.0 | 0.00 | 0.00 | 0.00 | 62 | 1016.8 |
| 20260507135623 | 45 | 294 | 2.0 | 4.0 | 0.00 | 0.00 | 0.00 | 57 | 1016.6 |
| 20260507135120 | 45 | 247 | 2.0 | 4.0 | 0.00 | 0.00 | 0.00 | 61 | 1016.7 |
| 20260507134616 | 45 | 36 | 1.0 | 4.0 | 0.00 | 0.00 | 0.00 | 58 | 1016.6 |
| 20260507134112 | 44 | 274 | 2.0 | 3.0 | 0.00 | 0.00 | 0.00 | 62 | 1016.7 |
| 20260507133608 | 44 | 276 | 3.0 | 6.0 | 0.00 | 0.00 | 0.00 | 60 | 1016.5 |
| 20260507133106 | 44 | 144 | 7.0 | 9.0 | 0.00 | 0.00 | 0.00 | 60 | 1016.7 |
| 20260507132603 | 44 | 99 | 4.0 | 8.0 | 0.00 | 0.00 | 0.00 | 62 | 1016.4 |
| 20260507132059 | 44 | 100 | 4.0 | 8.0 | 0.00 | 0.00 | 0.00 | 61 | 1016.5 |
| 20260507131556 | 43 | 72 | 3.0 | 6.0 | 0.00 | 0.00 | 0.00 | 64 | 1016.6 |
| 20260507131054 | 43 | 137 | 3.0 | 8.0 | 0.00 | 0.00 | 0.00 | 63 | 1016.5 |
| 20260507130550 | 43 | 93 | 6.0 | 10.0 | 0.00 | 0.00 | 0.00 | 63 | 1016.6 |
| 20260507130048 | 43 | 59 | 1.0 | 9.0 | 0.00 | 0.00 | 0.00 | 65 | 1016.7 |
| 20260507125547 | 42 | 103 | 5.0 | 8.0 | 0.00 | 0.00 | 0.00 | 62 | 1016.6 |
| 20260507125044 | 42 | 129 | 4.0 | 11.0 | 0.00 | 0.00 | 0.00 | 62 | 1016.4 |
| 20260507124540 | 43 | 157 | 4.0 | 12.0 | 0.00 | 0.00 | 0.00 | 61 | 1016.3 |
| 20260507124038 | 42 | 150 | 8.0 | 13.0 | 0.00 | 0.00 | 0.00 | 63 | 1016.5 |
| 20260507123536 | 42 | 159 | 6.0 | 11.0 | 0.00 | 0.00 | 0.00 | 61 | 1016.3 |
| 20260507123032 | 43 | 155 | 6.0 | 9.0 | 0.00 | 0.00 | 0.00 | 62 | 1016.3 |
| 20260507122528 | 43 | 153 | 10.0 | 11.0 | 0.00 | 0.00 | 0.00 | 61 | 1016.3 |
| 20260507122024 | 43 | 176 | 16.0 | 19.0 | 0.00 | 0.00 | 0.00 | 62 | 1016.2 |
| 20260507121519 | 44 | 274 | 0.0 | 7.0 | 0.00 | 0.00 | 0.00 | 63 | 1016.1 |
| 20260507121015 | 44 | 150 | 4.0 | 4.0 | 0.00 | 0.00 | 0.00 | 68 | 1016.1 |
| 20260507120512 | 43 | 244 | 8.0 | 11.0 | 0.00 | 0.00 | 0.00 | 65 | 1016.0 |
| 20260507120009 | 43 | 274 | 11.0 | 13.0 | 0.00 | 0.00 | 0.00 | 67 | 1015.8 |
| 20260507115505 | 44 | 287 | 12.0 | 15.0 | 0.00 | 0.00 | 0.00 | 65 | 1015.8 |
| 20260507115001 | 44 | 285 | 9.0 | 11.0 | 0.00 | 0.00 | 0.00 | 65 | 1015.8 |
| 20260507114457 | 44 | 266 | 6.0 | 8.0 | 0.00 | 0.00 | 0.00 | 65 | 1015.8 |
| 20260507113955 | 44 | 263 | 0.0 | 3.0 | 0.00 | 0.00 | 0.00 | 62 | 1015.8 |
| 20260507113452 | 44 | 107 | 2.0 | 11.0 | 0.00 | 0.00 | 0.00 | 57 | 1015.6 |
| 20260507112949 | 44 | 163 | 7.0 | 9.0 | 0.00 | 0.00 | 0.00 | 58 | 1015.4 |
| 20260507112446 | 44 | 145 | 7.0 | 11.0 | 0.00 | 0.00 | 0.00 | 56 | 1015.5 |
| 20260507111943 | 44 | 165 | 7.0 | 14.0 | 0.00 | 0.00 | 0.00 | 56 | 1015.6 |
| 20260507111440 | 44 | 157 | 5.0 | 6.0 | 0.00 | 0.00 | 0.00 | 59 | 1015.3 |
| 20260507110936 | 44 | 286 | 2.0 | 5.0 | 0.00 | 0.00 | 0.00 | 62 | 1015.4 |
| 20260507110433 | 44 | 324 | 0.0 | 2.0 | 0.00 | 0.00 | 0.00 | 63 | 1015.3 |
| 20260507105929 | 44 | 312 | 3.0 | 6.0 | 0.00 | 0.00 | 0.00 | 67 | 1015.3 |
| 20260507105426 | 44 | 284 | 7.0 | 7.0 | 0.00 | 0.00 | 0.00 | 70 | 1015.2 |
| 20260507104923 | 43 | 277 | 3.0 | 9.0 | 0.00 | 0.00 | 0.00 | 72 | 1015.3 |
| 20260507104420 | 43 | 305 | 6.0 | 9.0 | 0.00 | 0.00 | 0.00 | 72 | 1015.2 |
| 20260507103915 | 43 | 287 | 6.0 | 10.0 | 0.00 | 0.00 | 0.00 | 73 | 1015.1 |
| 20260507103413 | 42 | 282 | 6.0 | 12.0 | 0.00 | 0.00 | 0.00 | 74 | 1015.2 |
| 20260507102909 | 43 | 278 | 8.0 | 11.0 | 0.00 | 0.00 | 0.00 | 71 | 1014.9 |
| 20260507102406 | 43 | 316 | 5.0 | 7.0 | 0.00 | 0.00 | 0.00 | 72 | 1015.0 |
| 20260507101902 | 43 | 280 | 8.0 | 11.0 | 0.00 | 0.00 | 0.00 | 71 | 1015.1 |
| 20260507101402 | 43 | 249 | 6.0 | 11.0 | 0.00 | 0.00 | 0.00 | 69 | 1014.9 |
| 20260507100859 | 44 | 288 | 8.0 | 11.0 | 0.00 | 0.00 | 0.00 | 70 | 1014.8 |
| 20260507100357 | 43 | 199 | 1.0 | 5.0 | 0.00 | 0.00 | 0.00 | 63 | 1014.9 |
| 20260507095855 | 42 | 275 | 6.0 | 10.0 | 0.00 | 0.00 | 0.00 | 74 | 1014.8 |
| 20260507095351 | 42 | 279 | 5.0 | 9.0 | 0.00 | 0.00 | 0.00 | 73 | 1014.7 |
| 20260507094849 | 42 | 304 | 5.0 | 11.0 | 0.00 | 0.00 | 0.00 | 75 | 1014.8 |
| 20260507094345 | 42 | 280 | 6.0 | 13.0 | 0.00 | 0.00 | 0.00 | 75 | 1014.8 |
| 20260507093842 | 42 | 291 | 8.0 | 12.0 | 0.00 | 0.00 | 0.00 | 71 | 1014.8 |
| 20260507093340 | 42 | 296 | 9.0 | 11.0 | 0.00 | 0.00 | 0.00 | 73 | 1014.6 |
| 20260507092838 | 43 | 279 | 5.0 | 8.0 | 0.00 | 0.00 | 0.00 | 66 | 1014.8 |
| 20260507092334 | 44 | 262 | 6.0 | 9.0 | 0.00 | 0.00 | 0.00 | 64 | 1014.7 |
| 20260507091830 | 44 | 157 | 2.0 | 9.0 | 0.00 | 0.00 | 0.00 | 56 | 1014.7 |
| 20260507091327 | 44 | 147 | 2.0 | 4.0 | 0.00 | 0.00 | 0.00 | 58 | 1014.5 |
| 20260507090823 | 44 | 152 | 5.0 | 11.0 | 0.00 | 0.00 | 0.00 | 54 | 1014.6 |
| 20260507090319 | 44 | 170 | 3.0 | 6.0 | 0.00 | 0.00 | 0.00 | 56 | 1014.5 |
| 20260507085816 | 44 | 207 | 2.0 | 6.0 | 0.00 | 0.00 | 0.00 | 56 | 1014.4 |
| 20260507085313 | 45 | 343 | 3.0 | 6.0 | 0.00 | 0.00 | 0.00 | 55 | 1014.2 |
| 20260507084811 | 44 | 309 | 2.0 | 3.0 | 0.00 | 0.00 | 0.00 | 60 | 1014.3 |
| 20260507084307 | 44 | 109 | 1.0 | 2.0 | 0.00 | 0.00 | 0.00 | 58 | 1014.2 |
| 20260507083805 | 44 | 351 | 2.0 | 3.0 | 0.00 | 0.00 | 0.00 | 56 | 1014.4 |
| 20260507083301 | 43 | 349 | 4.0 | 4.0 | 0.00 | 0.00 | 0.00 | 56 | 1014.1 |
| 20260507082757 | 43 | 315 | 6.0 | 7.0 | 0.00 | 0.00 | 0.00 | 62 | 1014.2 |
| 20260507082253 | 43 | 302 | 5.0 | 5.0 | 0.00 | 0.00 | 0.00 | 64 | 1014.3 |
| 20260507081750 | 43 | 265 | 4.0 | 6.0 | 0.00 | 0.00 | 0.00 | 59 | 1014.1 |
| 20260507081246 | 44 | 246 | 2.0 | 5.0 | 0.00 | 0.00 | 0.00 | 61 | 1014.1 |
| 20260507080742 | 44 | 294 | 3.0 | 5.0 | 0.00 | 0.00 | 0.00 | 57 | 1014.1 |
| 20260507080239 | 44 | 171 | 1.0 | 8.0 | 0.00 | 0.00 | 0.00 | 53 | 1014.0 |
| 20260507075734 | 44 | 148 | 6.0 | 11.0 | 0.00 | 0.00 | 0.00 | 55 | 1014.1 |
| 20260507075231 | 44 | 146 | 2.0 | 8.0 | 0.00 | 0.00 | 0.00 | 57 | 1014.1 |
| 20260507074727 | 44 | 176 | 0.0 | 8.0 | 0.00 | 0.00 | 0.00 | 56 | 1014.0 |
| 20260507074225 | 44 | 177 | 3.0 | 8.0 | 0.00 | 0.00 | 0.00 | 57 | 1013.9 |
| 20260507073722 | 44 | 144 | 4.0 | 11.0 | 0.00 | 0.00 | 0.00 | 56 | 1013.9 |
| 20260507073218 | 44 | 165 | 5.0 | 8.0 | 0.00 | 0.00 | 0.00 | 54 | 1013.9 |